OHEEK EBOS-EGKK
Flight info
| Callsign | OHEEK |
|---|---|
| Flight time | N/A |
| Altitude | 5000 |
| Route | HILXI MEBIG |
| Aircraft | C172/L-V/N |
Departure
| Time | 2026-05-04 10:17 |
|---|---|
| Airport | Ostend-Bruges International Airport (EBOS) |
Arrival
| Time | N/A |
|---|---|
| Airport | London Gatwick Airport (EGKK) |
| Time | Latitude | Longitude | Altitude | Speed | Heading |
|---|---|---|---|---|---|
| 2026-05-04 09:42 | 51.20142 | 2.86809 | 13 ft | 0 kts | 166° |
| 2026-05-04 10:12 | 51.20141 | 2.86810 | 13 ft | 1 kts | 173° |
| 2026-05-04 10:12 | 51.20133 | 2.86801 | 13 ft | 1 kts | 251° |
| 2026-05-04 10:12 | 51.20149 | 2.86774 | 13 ft | 5 kts | 303° |
| 2026-05-04 10:13 | 51.20124 | 2.86703 | 13 ft | 10 kts | 220° |
| 2026-05-04 10:13 | 51.20058 | 2.86694 | 11 ft | 9 kts | 152° |
| 2026-05-04 10:13 | 51.20050 | 2.86783 | 11 ft | 7 kts | 76° |
| 2026-05-04 10:13 | 51.20061 | 2.86859 | 11 ft | 6 kts | 76° |
| 2026-05-04 10:14 | 51.20074 | 2.86945 | 12 ft | 9 kts | 76° |
| 2026-05-04 10:14 | 51.20090 | 2.87055 | 14 ft | 11 kts | 76° |
| 2026-05-04 10:16 | 51.19930 | 2.87078 | 9 ft | 45 kts | 256° |
| 2026-05-04 10:16 | 51.19832 | 2.86426 | 84 ft | 66 kts | 258° |
| 2026-05-04 10:16 | 51.19736 | 2.85715 | 268 ft | 73 kts | 255° |
| 2026-05-04 10:16 | 51.19630 | 2.84917 | 493 ft | 75 kts | 255° |
| 2026-05-04 10:17 | 51.19529 | 2.84083 | 715 ft | 77 kts | 258° |
| 2026-05-04 10:17 | 51.19414 | 2.83245 | 932 ft | 80 kts | 258° |
| 2026-05-04 10:19 | 51.18092 | 2.74594 | 1027 ft | 124 kts | 258° |
| 2026-05-04 10:19 | 51.17894 | 2.73237 | 981 ft | 126 kts | 258° |
| 2026-05-04 10:19 | 51.17704 | 2.71881 | 973 ft | 126 kts | 259° |
| 2026-05-04 10:19 | 51.17519 | 2.70532 | 990 ft | 124 kts | 257° |
| 2026-05-04 10:20 | 51.17296 | 2.69209 | 1001 ft | 124 kts | 256° |
| 2026-05-04 10:20 | 51.17077 | 2.67876 | 998 ft | 125 kts | 257° |
| 2026-05-04 10:20 | 51.16864 | 2.66536 | 998 ft | 125 kts | 257° |
| 2026-05-04 10:20 | 51.16654 | 2.65190 | 999 ft | 125 kts | 257° |
| 2026-05-04 10:21 | 51.16446 | 2.63845 | 1002 ft | 125 kts | 257° |
| 2026-05-04 10:21 | 51.16237 | 2.62499 | 1003 ft | 125 kts | 257° |
| 2026-05-04 10:21 | 51.16029 | 2.61154 | 1003 ft | 125 kts | 258° |
| 2026-05-04 10:21 | 51.15821 | 2.59805 | 1004 ft | 125 kts | 258° |
| 2026-05-04 10:22 | 51.15434 | 2.57101 | 1001 ft | 125 kts | 266° |
| 2026-05-04 10:22 | 51.15406 | 2.55725 | 1003 ft | 124 kts | 271° |
| 2026-05-04 10:22 | 51.15403 | 2.54345 | 1002 ft | 125 kts | 271° |
| 2026-05-04 10:23 | 51.15402 | 2.52960 | 1001 ft | 125 kts | 271° |
| 2026-05-04 10:23 | 51.15399 | 2.51578 | 998 ft | 125 kts | 272° |
| 2026-05-04 10:25 | 51.15375 | 2.41931 | 1001 ft | 124 kts | 272° |
| 2026-05-04 10:25 | 51.15370 | 2.40550 | 1006 ft | 125 kts | 272° |